Catingueira, Brazil
Current Conditions -  °F | °C
As of 5:00 AM on Saturday 25 Oct 2014 (Local Time) from SBJU Reporting Station
Broken Clouds Broken Clouds  
Wind Chill: 81°   Ceiling: 2000
Heat Index: 83°   Visibility: 6mi
Dew Point: 68°   Wind: 12mph
Humidity: 65%   Direction: 130°SE
Pressure: 29.97"   Gusts: NA
Location:  7.13°S, 37.61°W
Report Text: SBJU 250800Z 13010KT 9999 BKN020 27/20 Q1015
Loading
Personal Weather Stations






























Interactive Weather Map
Tropical Storm Tracking
New forecast layout! Learn more

10-Day Weather Forecast

Advertisements
Track Severe Weather on mobile